createdAt,value
2022-08-26T00:01:53.932Z,101574.72
2022-08-26T00:04:23.442Z,101579.25
2022-08-26T00:06:51.249Z,101589.34
2022-08-26T00:09:20.292Z,101602.91
2022-08-26T00:11:48.686Z,101623.66
2022-08-26T00:14:17.336Z,101628.31
2022-08-26T00:16:48.171Z,101663.22
2022-08-26T00:19:17.855Z,101676.88
2022-08-26T00:21:46.044Z,101699.50
2022-08-26T00:24:14.302Z,101690.75
2022-08-26T00:26:43.752Z,101694.75
2022-08-26T00:29:13.110Z,101713.81
2022-08-26T00:31:40.955Z,101726.47
2022-08-26T00:34:11.339Z,101747.19
2022-08-26T00:36:41.369Z,101758.97
2022-08-26T00:39:10.008Z,101771.56
2022-08-26T00:41:40.031Z,101771.75
2022-08-26T00:44:11.051Z,101770.97
2022-08-26T00:46:46.615Z,101781.81
2022-08-26T00:49:18.152Z,101794.50
2022-08-26T00:51:50.483Z,101805.13
2022-08-26T00:54:21.051Z,101800.78
2022-08-26T00:56:56.035Z,101810.66
2022-08-26T00:59:26.286Z,101820.50
2022-08-26T01:01:54.375Z,101846.22
2022-08-26T01:04:26.128Z,101859.53
2022-08-26T01:06:55.094Z,101871.91
2022-08-26T01:09:23.386Z,101862.16
2022-08-26T01:11:53.733Z,101889.69
2022-08-26T01:14:22.772Z,101891.63
2022-08-26T01:16:52.279Z,101886.97
2022-08-26T01:19:24.998Z,101887.94
2022-08-26T01:21:57.218Z,101886.84
2022-08-26T01:24:28.526Z,101899.44
2022-08-26T01:26:58.976Z,101905.72
2022-08-26T01:29:27.329Z,101904.00
2022-08-26T01:31:57.033Z,101911.13
2022-08-26T01:34:28.794Z,101922.66
2022-08-26T01:37:06.892Z,101909.41
2022-08-26T01:39:37.999Z,101912.31
2022-08-26T01:42:14.674Z,101908.75
2022-08-26T01:44:47.013Z,101900.06
2022-08-26T01:47:18.519Z,101882.47
2022-08-26T01:49:49.308Z,101879.88
2022-08-26T01:52:23.882Z,101900.47
2022-08-26T01:54:58.246Z,101917.78
2022-08-26T01:57:27.973Z,101911.06
2022-08-26T02:00:00.641Z,101908.66
2022-08-26T02:02:29.032Z,101917.72
2022-08-26T02:05:00.846Z,101945.56
2022-08-26T02:07:29.745Z,101962.03
2022-08-26T02:09:58.963Z,101974.03
2022-08-26T02:12:27.421Z,101981.38
2022-08-26T02:14:59.208Z,101989.59
2022-08-26T02:17:31.193Z,102004.19
2022-08-26T02:19:59.311Z,102009.91
2022-08-26T02:22:27.030Z,102017.25
2022-08-26T02:24:57.580Z,102010.28
2022-08-26T02:27:32.109Z,102033.72
2022-08-26T02:30:07.994Z,102065.03
2022-08-26T02:32:35.836Z,102072.47
2022-08-26T02:35:03.451Z,102062.78
2022-08-26T02:37:32.449Z,102084.34
2022-08-26T02:40:02.012Z,102105.81
2022-08-26T02:42:32.437Z,102116.84
2022-08-26T02:45:00.375Z,102109.09
2022-08-26T02:47:28.991Z,102098.63
2022-08-26T02:49:57.099Z,102099.63
2022-08-26T02:52:25.364Z,102114.09
2022-08-26T02:54:53.123Z,102121.34
2022-08-26T02:57:22.203Z,102134.00
2022-08-26T02:59:51.346Z,102139.44
2022-08-26T03:02:19.195Z,102154.81
2022-08-26T03:04:57.524Z,102164.66
2022-08-26T03:07:28.501Z,102177.31
2022-08-26T03:09:56.832Z,102188.06
2022-08-26T03:12:25.643Z,102208.72
2022-08-26T03:14:54.873Z,102210.56
2022-08-26T03:17:22.630Z,102215.19
2022-08-26T03:19:57.040Z,102221.47
2022-08-26T03:22:25.884Z,102230.47
2022-08-26T03:24:54.962Z,102242.25
2022-08-26T03:27:22.621Z,102237.09
2022-08-26T03:30:13.139Z,102227.22
2022-08-26T03:32:44.494Z,102236.22
2022-08-26T03:35:12.799Z,102234.53
2022-08-26T03:37:41.642Z,102249.75
2022-08-26T03:40:11.712Z,102265.00
2022-08-26T03:42:40.950Z,102272.28
2022-08-26T03:45:14.074Z,102274.00
2022-08-26T03:47:44.570Z,102282.94
2022-08-26T03:50:14.573Z,102287.47
2022-08-26T03:52:44.059Z,102290.91
2022-08-26T03:55:12.458Z,102297.16
2022-08-26T03:57:40.101Z,102314.88
2022-08-26T04:00:14.049Z,102319.22
2022-08-26T04:02:51.129Z,102319.06
2022-08-26T04:05:23.182Z,102331.34
2022-08-26T04:07:51.158Z,102320.44
2022-08-26T04:10:28.494Z,102326.44
2022-08-26T04:12:58.732Z,102312.91
2022-08-26T04:15:34.441Z,102314.31
2022-08-26T04:18:03.426Z,102311.41
2022-08-26T04:20:31.929Z,102301.38
2022-08-26T04:22:59.622Z,102284.84
2022-08-26T04:25:27.301Z,102255.13
2022-08-26T04:27:55.412Z,102243.06
2022-08-26T04:30:23.164Z,102208.81
2022-08-26T04:32:51.777Z,102176.44
2022-08-26T04:35:25.727Z,102159.78
2022-08-26T04:37:54.383Z,102139.00
2022-08-26T04:40:22.198Z,102105.44
2022-08-26T04:42:50.229Z,102078.16
2022-08-26T04:45:19.169Z,102056.09
2022-08-26T04:47:54.406Z,102026.09
2022-08-26T04:50:25.819Z,101983.50
2022-08-26T04:52:55.021Z,101959.50
2022-08-26T04:55:25.211Z,101948.91
2022-08-26T04:58:08.813Z,101928.25
2022-08-26T05:00:38.509Z,101883.50
2022-08-26T05:03:07.267Z,101850.09
2022-08-26T05:05:41.917Z,101794.38
2022-08-26T05:08:11.402Z,101767.88
2022-08-26T05:10:43.500Z,101719.13
2022-08-26T05:13:14.233Z,101663.97
2022-08-26T05:15:43.895Z,101623.22
2022-08-26T05:18:12.019Z,101577.00
2022-08-26T05:20:43.147Z,101555.78
2022-08-26T05:23:10.914Z,101486.84
2022-08-26T05:25:40.417Z,101450.56
2022-08-26T05:28:08.054Z,101441.91
2022-08-26T05:30:36.983Z,101436.19
2022-08-26T05:33:05.823Z,101417.16
2022-08-26T05:35:34.371Z,101391.78
2022-08-26T05:38:06.556Z,101335.97
2022-08-26T05:40:40.625Z,101333.06
2022-08-26T05:43:10.564Z,101324.03
2022-08-26T05:45:44.887Z,101313.41
2022-08-26T05:48:16.126Z,101283.47
2022-08-26T05:50:45.991Z,101261.53
2022-08-26T05:53:18.100Z,101242.06
2022-08-26T05:55:47.953Z,101255.41
2022-08-26T05:58:17.436Z,101266.06
2022-08-26T06:00:45.691Z,101213.22
2022-08-26T06:03:13.530Z,101154.53
2022-08-26T06:05:42.541Z,101175.63
2022-08-26T06:08:19.426Z,101151.13
2022-08-26T06:10:50.174Z,101128.81
2022-08-26T06:13:20.229Z,101098.88
2022-08-26T06:15:50.265Z,101093.59
2022-08-26T06:18:20.236Z,101051.59
2022-08-26T06:20:56.930Z,100926.91
2022-08-26T06:23:45.010Z,101030.94
2022-08-26T06:26:14.774Z,101010.72
2022-08-26T06:28:45.310Z,100991.03
2022-08-26T06:31:13.582Z,101014.59
2022-08-26T06:33:41.316Z,101045.59
2022-08-26T06:36:09.256Z,101014.28
2022-08-26T06:38:37.564Z,100952.53
2022-08-26T06:41:05.261Z,100963.78
2022-08-26T06:43:35.215Z,100868.41
2022-08-26T06:46:07.714Z,100949.22
2022-08-26T06:48:38.910Z,100789.63
2022-08-26T06:51:10.558Z,100855.69
2022-08-26T06:53:41.194Z,100859.78
2022-08-26T06:56:13.527Z,100861.97
2022-08-26T06:58:45.280Z,100770.81
2022-08-26T07:01:21.821Z,100837.13
2022-08-26T07:03:53.261Z,100715.13
2022-08-26T07:06:24.590Z,100662.03
2022-08-26T07:09:01.891Z,100652.69
2022-08-26T07:11:34.035Z,100662.34
2022-08-26T07:14:05.615Z,100623.59
2022-08-26T07:16:34.067Z,100586.28
2022-08-26T07:19:11.103Z,100596.59
2022-08-26T07:21:40.376Z,100571.72
2022-08-26T07:24:08.685Z,100473.88
2022-08-26T07:26:43.186Z,100523.03
2022-08-26T07:29:12.701Z,100478.78
2022-08-26T07:31:42.449Z,100452.72
2022-08-26T07:34:10.787Z,100392.53
2022-08-26T07:36:38.929Z,100340.00
2022-08-26T07:39:07.240Z,100404.41
2022-08-26T07:41:36.509Z,100382.31
2022-08-26T07:44:04.724Z,100370.69
2022-08-26T07:46:35.078Z,100424.31
2022-08-26T07:49:02.835Z,100336.75
2022-08-26T07:51:31.846Z,100243.78
2022-08-26T07:53:59.599Z,100388.72
2022-08-26T07:56:27.774Z,100290.56
2022-08-26T07:58:55.858Z,100271.97
2022-08-26T08:01:26.785Z,100292.53
2022-08-26T08:03:56.271Z,100230.25
2022-08-26T08:06:27.168Z,100230.59
2022-08-26T08:08:56.093Z,100315.09
2022-08-26T08:11:24.134Z,100172.25
2022-08-26T08:13:56.511Z,100242.94
2022-08-26T08:16:26.268Z,100236.00
2022-08-26T08:18:54.399Z,100188.44
2022-08-26T08:21:25.262Z,100134.00
2022-08-26T08:23:54.242Z,100180.19
2022-08-26T08:26:23.126Z,100128.84
2022-08-26T08:28:51.271Z,100171.91
2022-08-26T08:31:38.752Z,100081.19
2022-08-26T08:34:08.101Z,100126.28
2022-08-26T08:36:37.224Z,100137.09
2022-08-26T08:39:06.496Z,100109.00
2022-08-26T08:41:50.281Z,100162.97
2022-08-26T08:44:21.381Z,100132.72
2022-08-26T08:46:56.259Z,100161.00
2022-08-26T08:49:26.116Z,100102.50
2022-08-26T08:52:00.759Z,100058.22
2022-08-26T08:54:29.118Z,100058.22
2022-08-26T08:57:03.880Z,100097.88
2022-08-26T08:59:34.865Z,100015.97
2022-08-26T09:02:12.228Z,100071.22
2022-08-26T09:05:00.299Z,100067.59
2022-08-26T09:07:37.545Z,100073.75
2022-08-26T09:10:18.819Z,100050.03
2022-08-26T09:12:48.550Z,100028.50
2022-08-26T09:15:20.305Z,99962.75
2022-08-26T09:17:59.877Z,100015.06
2022-08-26T09:20:49.453Z,100087.22
2022-08-26T09:23:19.618Z,100006.06
2022-08-26T09:25:50.394Z,100127.44
2022-08-26T09:28:20.737Z,100124.03
2022-08-26T09:31:01.426Z,100159.75
2022-08-26T09:33:31.489Z,100129.59
2022-08-26T09:36:14.970Z,100066.56
2022-08-26T09:38:44.570Z,100011.03
2022-08-26T09:41:31.678Z,100118.44
2022-08-26T09:44:14.683Z,100102.34
2022-08-26T09:46:47.218Z,99961.09
2022-08-26T09:49:26.430Z,100029.94
2022-08-26T09:52:19.289Z,100073.72
2022-08-26T09:55:02.266Z,100051.31
2022-08-26T09:57:34.267Z,100005.41
2022-08-26T10:00:02.877Z,100046.50
2022-08-26T10:02:38.724Z,99989.59
2022-08-26T10:05:11.386Z,99976.28
2022-08-26T10:07:43.471Z,100065.06
2022-08-26T10:10:18.338Z,100087.66
2022-08-26T10:12:54.535Z,100038.47
2022-08-26T10:15:25.317Z,100061.38
2022-08-26T10:17:59.628Z,99928.47
2022-08-26T10:20:32.381Z,99978.78
2022-08-26T10:23:05.347Z,100046.25
2022-08-26T10:25:39.278Z,100017.72
2022-08-26T10:28:13.705Z,99983.19
2022-08-26T10:30:46.834Z,99944.16
2022-08-26T10:33:18.132Z,99949.91
2022-08-26T10:35:51.726Z,100025.59
2022-08-26T10:38:23.785Z,100094.44
2022-08-26T10:41:00.141Z,100058.72
2022-08-26T10:43:31.537Z,100096.06
2022-08-26T10:46:04.357Z,100159.28
2022-08-26T10:48:40.036Z,100236.78
2022-08-26T10:51:08.640Z,100288.38
2022-08-26T10:53:44.550Z,100352.00
2022-08-26T10:56:23.617Z,100391.19
2022-08-26T10:59:02.818Z,100385.91
2022-08-26T11:01:47.183Z,100365.19
2022-08-26T11:04:48.101Z,100407.81
2022-08-26T11:07:37.566Z,100404.63
2022-08-26T11:10:25.038Z,100352.78
2022-08-26T11:12:57.963Z,100280.03
2022-08-26T11:16:09.371Z,100293.50
2022-08-26T11:18:46.328Z,100264.50
2022-08-26T11:21:47.778Z,100120.91
2022-08-26T11:25:02.436Z,100072.56
2022-08-26T11:28:01.449Z,100049.06
2022-08-26T11:30:57.553Z,100061.19
2022-08-26T11:33:59.947Z,100046.75
2022-08-26T11:36:59.037Z,99994.88
2022-08-26T11:39:30.653Z,99985.94
2022-08-26T11:42:01.101Z,100039.22
2022-08-26T11:44:38.926Z,100112.94
2022-08-26T11:47:11.450Z,100167.25
2022-08-26T11:49:39.801Z,100186.47
2022-08-26T11:52:16.926Z,100211.53
2022-08-26T11:55:00.472Z,100183.63
2022-08-26T11:57:28.737Z,100233.16
2022-08-26T11:59:58.490Z,100326.06
2022-08-26T12:02:27.865Z,100385.66
2022-08-26T12:04:56.748Z,100394.78
2022-08-26T12:07:28.094Z,100409.66
2022-08-26T12:09:59.034Z,100441.09
2022-08-26T12:12:34.712Z,100527.94
2022-08-26T12:15:17.065Z,100560.06
2022-08-26T12:17:49.430Z,100606.53
2022-08-26T12:20:45.702Z,100628.88
2022-08-26T12:23:28.953Z,100644.91
2022-08-26T12:26:05.837Z,100677.19
2022-08-26T12:28:34.121Z,100684.34
2022-08-26T12:31:06.653Z,100670.34
2022-08-26T12:33:37.040Z,100647.06
2022-08-26T12:36:06.087Z,100675.34
2022-08-26T12:38:37.583Z,100688.06
2022-08-26T12:41:05.544Z,100692.63
2022-08-26T12:43:42.523Z,100727.50
2022-08-26T12:46:15.410Z,100751.34
2022-08-26T12:48:46.003Z,100777.94
2022-08-26T12:51:24.105Z,100799.94
2022-08-26T12:53:52.672Z,100832.53
2022-08-26T12:56:29.739Z,100824.81
2022-08-26T12:59:07.568Z,100843.69
2022-08-26T13:01:43.658Z,100848.69
2022-08-26T13:04:34.858Z,100853.66
2022-08-26T13:07:21.132Z,100879.97
2022-08-26T13:09:50.233Z,100909.09
2022-08-26T13:12:29.555Z,100954.31
2022-08-26T13:14:59.553Z,100977.19
2022-08-26T13:17:30.316Z,100993.66
2022-08-26T13:20:03.485Z,101017.78
2022-08-26T13:22:32.584Z,101025.00
2022-08-26T13:25:00.815Z,101023.00
2022-08-26T13:27:29.095Z,101015.59
2022-08-26T13:29:57.833Z,101023.44
2022-08-26T13:32:28.215Z,101008.28
2022-08-26T13:34:58.571Z,100979.97
2022-08-26T13:37:34.883Z,100944.81
2022-08-26T13:40:05.948Z,100917.25
2022-08-26T13:42:34.527Z,100858.50
2022-08-26T13:45:04.819Z,100782.47
2022-08-26T13:47:33.921Z,100761.22
2022-08-26T13:50:01.748Z,100751.81
2022-08-26T13:52:30.581Z,100738.78
2022-08-26T13:55:00.159Z,100670.50
2022-08-26T13:57:28.435Z,100673.06
2022-08-26T13:59:58.955Z,100679.63
2022-08-26T14:02:27.346Z,100716.19
2022-08-26T14:04:56.468Z,100689.22
2022-08-26T14:07:24.440Z,100722.91
2022-08-26T14:09:52.241Z,100779.25
2022-08-26T14:12:19.926Z,100820.53
2022-08-26T14:14:48.141Z,100858.84
2022-08-26T14:17:19.363Z,100833.78
2022-08-26T14:19:50.617Z,100846.53
2022-08-26T14:22:22.400Z,100813.34
2022-08-26T14:24:50.591Z,100834.53
2022-08-26T14:27:18.329Z,100858.94
2022-08-26T14:29:46.004Z,100888.94
2022-08-26T14:32:21.692Z,100939.81
2022-08-26T14:34:50.178Z,100943.38
2022-08-26T14:37:20.120Z,100933.31
2022-08-26T14:39:48.613Z,100943.00
2022-08-26T14:42:21.179Z,100965.25
2022-08-26T14:44:57.390Z,100942.91
2022-08-26T14:47:25.297Z,100872.31
2022-08-26T14:49:52.976Z,100889.53
2022-08-26T14:52:22.007Z,100924.13
2022-08-26T14:54:48.835Z,100895.53
2022-08-26T14:57:22.605Z,100866.59
2022-08-26T14:59:50.637Z,100918.28
2022-08-26T15:02:32.713Z,100974.00
2022-08-26T15:05:02.115Z,100989.81
2022-08-26T15:07:31.178Z,101004.63
2022-08-26T15:09:58.878Z,100999.13
2022-08-26T15:12:26.699Z,101015.53
2022-08-26T15:14:54.424Z,101038.97
2022-08-26T15:17:22.073Z,101054.22
2022-08-26T15:19:49.991Z,101057.69
2022-08-26T15:22:17.788Z,101084.28
2022-08-26T15:24:47.002Z,101046.59
2022-08-26T15:27:19.571Z,101011.06
2022-08-26T15:29:47.538Z,100999.19
2022-08-26T15:32:15.512Z,101037.78
2022-08-26T15:34:43.288Z,101033.34
2022-08-26T15:37:11.010Z,101002.19
2022-08-26T15:39:38.796Z,101006.47
2022-08-26T15:42:08.419Z,101004.78
2022-08-26T15:44:36.729Z,101000.47
2022-08-26T15:47:04.684Z,101007.72
2022-08-26T15:49:32.919Z,101020.94
2022-08-26T15:52:02.765Z,101052.66
2022-08-26T15:54:33.243Z,101082.13
2022-08-26T15:57:02.530Z,101124.78
2022-08-26T15:59:31.962Z,101161.63
2022-08-26T16:02:00.335Z,101154.41
2022-08-26T16:04:28.620Z,101167.47
2022-08-26T16:06:56.353Z,101179.44
2022-08-26T16:09:27.166Z,101200.25
2022-08-26T16:11:55.836Z,101218.22
2022-08-26T16:14:24.147Z,101208.88
2022-08-26T16:16:53.919Z,101208.03
2022-08-26T16:19:22.074Z,101228.22
2022-08-26T16:21:51.403Z,101241.19
2022-08-26T16:24:24.806Z,101242.28
2022-08-26T16:26:54.576Z,101245.72
2022-08-26T16:29:22.257Z,101263.59
2022-08-26T16:31:53.180Z,101263.72
2022-08-26T16:34:23.006Z,101267.78
2022-08-26T16:36:50.866Z,101268.16
2022-08-26T16:39:18.640Z,101276.53
2022-08-26T16:41:46.293Z,101252.25
2022-08-26T16:44:14.012Z,101226.72
2022-08-26T16:46:41.800Z,101223.16
2022-08-26T16:49:09.574Z,101228.09
2022-08-26T16:51:38.728Z,101231.56
2022-08-26T16:54:08.023Z,101241.03
2022-08-26T16:56:36.176Z,101248.78
2022-08-26T16:59:04.573Z,101276.25
2022-08-26T17:01:32.343Z,101278.00
2022-08-26T17:04:00.100Z,101301.69
2022-08-26T17:06:27.826Z,101314.38
2022-08-26T17:08:56.859Z,101333.22
2022-08-26T17:11:24.586Z,101336.19
2022-08-26T17:13:52.242Z,101321.63
2022-08-26T17:16:23.338Z,101341.72
2022-08-26T17:18:54.306Z,101349.88
2022-08-26T17:21:22.079Z,101377.72
2022-08-26T17:23:50.246Z,101392.28
2022-08-26T17:26:19.384Z,101401.66
2022-08-26T17:28:47.354Z,101407.31
2022-08-26T17:31:15.135Z,101445.53
2022-08-26T17:33:42.849Z,101440.97
2022-08-26T17:36:11.265Z,101442.72
2022-08-26T17:38:39.735Z,101437.66
2022-08-26T17:41:08.996Z,101430.72
2022-08-26T17:43:38.996Z,101442.44
2022-08-26T17:46:08.717Z,101448.00
2022-08-26T17:48:37.903Z,101441.94
2022-08-26T17:51:08.529Z,101455.50
2022-08-26T17:53:36.225Z,101456.59
2022-08-26T17:56:06.940Z,101438.34
2022-08-26T17:58:36.659Z,101461.84
2022-08-26T18:01:06.703Z,101465.81
2022-08-26T18:03:35.251Z,101472.56
2022-08-26T18:06:04.011Z,101473.53
2022-08-26T18:08:31.702Z,101483.41
2022-08-26T18:10:59.810Z,101470.19
2022-08-26T18:13:27.466Z,101483.84
2022-08-26T18:15:55.264Z,101505.78
2022-08-26T18:18:24.289Z,101515.88
2022-08-26T18:20:54.110Z,101536.59
2022-08-26T18:23:31.408Z,101544.94
2022-08-26T18:25:59.342Z,101546.28
2022-08-26T18:28:26.947Z,101533.25
2022-08-26T18:30:54.621Z,101541.59
2022-08-26T18:33:26.611Z,101587.44
2022-08-26T18:35:54.292Z,101602.94
2022-08-26T18:38:22.366Z,101616.47
2022-08-26T18:40:50.242Z,101642.63
2022-08-26T18:43:17.902Z,101649.97
2022-08-26T18:45:45.932Z,101648.47
2022-08-26T18:48:14.709Z,101663.00
2022-08-26T18:50:47.318Z,101660.50
2022-08-26T18:53:15.660Z,101673.94
2022-08-26T18:55:43.421Z,101687.38
2022-08-26T18:58:14.198Z,101686.50
2022-08-26T19:00:41.906Z,101697.34
2022-08-26T19:03:18.401Z,101717.19
2022-08-26T19:05:48.083Z,101723.47
2022-08-26T19:08:15.742Z,101730.59
2022-08-26T19:10:43.520Z,101746.75
2022-08-26T19:13:11.304Z,101752.28
2022-08-26T19:15:40.177Z,101769.53
2022-08-26T19:18:08.974Z,101772.56
2022-08-26T19:20:42.426Z,101803.00
2022-08-26T19:23:31.100Z,101808.53
2022-08-26T19:26:03.052Z,101819.25
2022-08-26T19:28:31.654Z,101830.84
2022-08-26T19:30:59.810Z,101819.38
2022-08-26T19:33:28.273Z,101832.16
2022-08-26T19:35:56.102Z,101822.50
2022-08-26T19:38:25.179Z,101817.31
2022-08-26T19:40:55.460Z,101846.22
2022-08-26T19:43:23.223Z,101844.59
2022-08-26T19:45:51.005Z,101849.38
2022-08-26T19:48:18.849Z,101848.69
2022-08-26T19:50:47.411Z,101837.41
2022-08-26T19:53:15.365Z,101839.25
2022-08-26T19:55:44.375Z,101837.72
2022-08-26T19:58:12.478Z,101849.41
2022-08-26T20:00:42.313Z,101888.00
2022-08-26T20:03:10.628Z,101910.44
2022-08-26T20:05:42.460Z,101919.34
2022-08-26T20:08:21.979Z,101927.34
2022-08-26T20:10:52.460Z,101920.19
2022-08-26T20:13:21.909Z,101901.53
2022-08-26T20:15:49.547Z,101888.97
2022-08-26T20:18:34.997Z,101888.97
2022-08-26T20:21:20.480Z,101897.84
2022-08-26T20:23:48.388Z,101889.84
2022-08-26T20:26:17.385Z,101868.59
2022-08-26T20:28:45.921Z,101889.19
2022-08-26T20:31:15.612Z,101899.91
2022-08-26T20:33:46.285Z,101918.75
2022-08-26T20:36:16.067Z,101922.22
2022-08-26T20:38:45.171Z,101918.75
2022-08-26T20:41:13.300Z,101927.00
2022-08-26T20:43:46.130Z,101947.78
2022-08-26T20:46:18.134Z,101971.09
2022-08-26T20:48:46.938Z,101978.16
2022-08-26T20:51:14.723Z,101973.69
2022-08-26T20:53:44.182Z,101975.44
2022-08-26T20:56:13.597Z,101965.47
2022-08-26T20:58:43.316Z,101937.53
2022-08-26T21:01:18.986Z,101902.63
2022-08-26T21:03:47.014Z,101889.19
2022-08-26T21:06:14.956Z,101872.94
2022-08-26T21:08:43.358Z,101861.78
2022-08-26T21:11:12.305Z,101850.84
2022-08-26T21:14:01.680Z,101851.63
2022-08-26T21:16:29.811Z,101854.34
2022-08-26T21:18:57.664Z,101869.50
2022-08-26T21:21:28.836Z,101859.75
2022-08-26T21:23:57.372Z,101880.66
2022-08-26T21:26:25.514Z,101912.84
2022-08-26T21:28:53.492Z,101916.63
2022-08-26T21:31:23.903Z,101934.50
2022-08-26T21:33:54.037Z,101933.75
2022-08-26T21:36:21.951Z,101952.59
2022-08-26T21:38:49.783Z,101957.91
2022-08-26T21:41:21.909Z,101964.19
2022-08-26T21:43:51.031Z,101965.16
2022-08-26T21:46:22.065Z,101946.41
2022-08-26T21:48:51.956Z,101951.06
2022-08-26T21:51:23.150Z,101933.06
2022-08-26T21:53:52.938Z,101948.34
2022-08-26T21:56:22.162Z,101951.06
2022-08-26T21:58:52.519Z,101945.75
2022-08-26T22:01:23.369Z,101964.47
2022-08-26T22:03:53.211Z,101968.09
2022-08-26T22:06:28.829Z,101944.09
2022-08-26T22:08:57.303Z,101941.59
2022-08-26T22:11:26.053Z,101944.41
2022-08-26T22:13:55.212Z,101938.22
2022-08-26T22:16:23.103Z,101954.47
2022-08-26T22:18:51.200Z,101951.84
2022-08-26T22:21:23.854Z,101954.69
2022-08-26T22:23:51.879Z,101937.66
2022-08-26T22:26:31.713Z,101949.53
2022-08-26T22:29:01.165Z,101942.50
2022-08-26T22:31:36.902Z,101956.94
2022-08-26T22:34:07.872Z,101956.16
2022-08-26T22:36:42.696Z,101962.44
2022-08-26T22:39:13.057Z,101956.25
2022-08-26T22:41:41.311Z,101934.88
2022-08-26T22:44:09.036Z,101939.53
2022-08-26T22:46:38.658Z,101939.75
2022-08-26T22:49:06.471Z,101963.03
2022-08-26T22:51:34.612Z,101963.41
2022-08-26T22:54:03.855Z,101962.72
2022-08-26T22:56:31.875Z,101964.66
2022-08-26T22:58:59.952Z,101963.03
2022-08-26T23:01:31.266Z,101978.63
2022-08-26T23:03:59.074Z,101967.19
2022-08-26T23:06:26.963Z,101974.44
2022-08-26T23:08:54.635Z,101998.72
2022-08-26T23:11:23.782Z,102021.31
2022-08-26T23:13:51.509Z,102031.34
2022-08-26T23:16:19.297Z,102036.06
2022-08-26T23:18:47.094Z,102048.63
2022-08-26T23:21:15.208Z,102044.19
2022-08-26T23:23:44.330Z,102048.75
2022-08-26T23:26:17.418Z,102031.03
2022-08-26T23:28:47.087Z,102026.69
2022-08-26T23:31:15.342Z,102043.78
2022-08-26T23:34:00.602Z,102054.59
2022-08-26T23:36:30.796Z,102090.19
2022-08-26T23:39:00.004Z,102116.13
2022-08-26T23:41:28.383Z,102133.03
2022-08-26T23:44:01.592Z,102143.00
2022-08-26T23:46:31.317Z,102144.63
2022-08-26T23:48:59.126Z,102134.72
2022-08-26T23:51:46.952Z,102115.00
2022-08-26T23:54:16.808Z,102123.00
2022-08-26T23:56:44.822Z,102119.63
2022-08-26T23:59:14.263Z,102133.16
